createdAt,value
2022-12-24T00:01:06.722Z,99256.56
2022-12-24T00:03:35.188Z,99261.19
2022-12-24T00:06:13.812Z,99251.66
2022-12-24T00:08:41.536Z,99264.41
2022-12-24T00:11:09.115Z,99257.53
2022-12-24T00:13:36.464Z,99250.84
2022-12-24T00:16:04.477Z,99248.47
2022-12-24T00:18:31.754Z,99249.34
2022-12-24T00:20:59.337Z,99257.59
2022-12-24T00:23:26.631Z,99260.50
2022-12-24T00:25:54.174Z,99262.59
2022-12-24T00:28:22.065Z,99257.91
2022-12-24T00:30:49.864Z,99262.13
2022-12-24T00:33:24.082Z,99264.41
2022-12-24T00:35:53.580Z,99259.81
2022-12-24T00:38:20.956Z,99263.88
2022-12-24T00:40:48.512Z,99243.44
2022-12-24T00:43:15.832Z,99258.38
2022-12-24T00:45:43.464Z,99248.22
2022-12-24T00:48:10.735Z,99269.06
2022-12-24T00:50:38.295Z,99260.19
2022-12-24T00:53:05.558Z,99265.47
2022-12-24T00:55:33.102Z,99266.69
2022-12-24T00:58:00.349Z,99271.31
2022-12-24T01:00:27.887Z,99264.06
2022-12-24T01:02:55.267Z,99284.09
2022-12-24T01:05:23.298Z,99290.50
2022-12-24T01:07:50.712Z,99299.56
2022-12-24T01:10:20.296Z,99287.50
2022-12-24T01:12:47.777Z,99288.59
2022-12-24T01:15:17.302Z,99298.91
2022-12-24T01:17:44.560Z,99302.75
2022-12-24T01:20:15.660Z,99296.34
2022-12-24T01:22:43.101Z,99305.19
2022-12-24T01:25:11.136Z,99300.13
2022-12-24T01:27:38.600Z,99308.81
2022-12-24T01:30:08.519Z,99310.88
2022-12-24T01:32:36.173Z,99302.03
2022-12-24T01:35:04.039Z,99312.94
2022-12-24T01:37:31.448Z,99316.03
2022-12-24T01:40:17.448Z,99319.25
2022-12-24T01:43:06.952Z,99316.97
2022-12-24T01:45:37.661Z,99333.94
2022-12-24T01:48:06.553Z,99331.56
2022-12-24T01:50:34.101Z,99325.75
2022-12-24T01:53:02.199Z,99325.25
2022-12-24T01:55:29.769Z,99318.97
2022-12-24T01:57:59.737Z,99329.16
2022-12-24T02:00:27.580Z,99322.72
2022-12-24T02:02:56.024Z,99338.75
2022-12-24T02:05:42.395Z,99337.81
2022-12-24T02:08:09.956Z,99344.69
2022-12-24T02:10:37.631Z,99338.66
2022-12-24T02:13:06.327Z,99341.38
2022-12-24T02:16:14.319Z,99350.97
2022-12-24T02:18:55.085Z,99347.66
2022-12-24T02:21:41.511Z,99346.22
2022-12-24T02:24:26.927Z,99352.78
2022-12-24T02:27:09.538Z,99352.38
2022-12-24T02:29:58.188Z,99362.31
2022-12-24T02:32:47.109Z,99357.28
2022-12-24T02:35:41.929Z,99359.19
2022-12-24T02:38:38.756Z,99356.09
2022-12-24T02:41:19.920Z,99365.72
2022-12-24T02:43:49.632Z,99375.22
2022-12-24T02:46:25.625Z,99373.25
2022-12-24T02:48:54.258Z,99356.81
2022-12-24T02:51:25.039Z,99364.72
2022-12-24T02:53:52.757Z,99365.53
2022-12-24T02:57:10.652Z,99368.97
2022-12-24T02:59:43.706Z,99373.25
2022-12-24T03:02:35.415Z,99376.09
2022-12-24T03:05:27.412Z,99372.28
2022-12-24T03:08:29.555Z,99375.50
2022-12-24T03:11:00.117Z,99378.34
2022-12-24T03:13:28.861Z,99382.50
2022-12-24T03:15:56.713Z,99381.19
2022-12-24T03:18:26.981Z,99366.19
2022-12-24T03:21:10.079Z,99387.28
2022-12-24T03:23:37.542Z,99389.38
2022-12-24T03:26:09.585Z,99390.03
2022-12-24T03:28:39.814Z,99388.63
2022-12-24T03:31:09.476Z,99384.91
2022-12-24T03:33:37.594Z,99397.25
2022-12-24T03:36:06.334Z,99398.75
2022-12-24T03:38:34.152Z,99385.75
2022-12-24T03:41:03.643Z,99398.84
2022-12-24T03:43:30.931Z,99403.69
2022-12-24T03:45:59.112Z,99406.09
2022-12-24T03:48:32.566Z,99404.72
2022-12-24T03:51:00.639Z,99403.47
2022-12-24T03:53:27.955Z,99414.50
2022-12-24T03:55:55.553Z,99419.28
2022-12-24T03:58:22.787Z,99411.22
2022-12-24T04:00:50.388Z,99418.28
2022-12-24T04:03:17.781Z,99412.16
2022-12-24T04:05:45.469Z,99411.59
2022-12-24T04:08:12.718Z,99416.22
2022-12-24T04:10:40.273Z,99423.75
2022-12-24T04:13:07.518Z,99430.72
2022-12-24T04:15:35.173Z,99432.69
2022-12-24T04:18:02.422Z,99415.31
2022-12-24T04:20:29.978Z,99422.06
2022-12-24T04:22:57.309Z,99427.38
2022-12-24T04:25:24.936Z,99421.88
2022-12-24T04:27:52.410Z,99428.47
2022-12-24T04:30:19.938Z,99431.53
2022-12-24T04:32:47.181Z,99444.16
2022-12-24T04:35:14.816Z,99441.03
2022-12-24T04:37:42.257Z,99434.06
2022-12-24T04:40:09.982Z,99440.00
2022-12-24T04:42:37.634Z,99441.22
2022-12-24T04:45:05.304Z,99441.47
2022-12-24T04:47:32.953Z,99432.16
2022-12-24T04:50:01.589Z,99443.94
2022-12-24T04:52:29.350Z,99444.69
2022-12-24T04:54:56.606Z,99435.28
2022-12-24T04:57:24.218Z,99446.88
2022-12-24T04:59:51.576Z,99441.16
2022-12-24T05:02:19.291Z,99440.19
2022-12-24T05:04:46.768Z,99450.19
2022-12-24T05:07:14.339Z,99442.81
2022-12-24T05:09:41.663Z,99449.00
2022-12-24T05:12:09.956Z,99447.72
2022-12-24T05:14:37.339Z,99442.78
2022-12-24T05:17:05.418Z,99445.69
2022-12-24T05:19:32.877Z,99445.56
2022-12-24T05:22:19.069Z,99458.94
2022-12-24T05:25:04.755Z,99459.63
2022-12-24T05:27:32.461Z,99464.69
2022-12-24T05:30:00.377Z,99467.75
2022-12-24T05:32:28.787Z,99466.13
2022-12-24T05:34:56.336Z,99474.59
2022-12-24T05:37:23.872Z,99477.72
2022-12-24T05:39:51.195Z,99474.16
2022-12-24T05:42:18.863Z,99473.34
2022-12-24T05:44:46.118Z,99472.06
2022-12-24T05:47:13.712Z,99472.94
2022-12-24T05:49:40.974Z,99475.31
2022-12-24T05:52:08.475Z,99480.03
2022-12-24T05:54:35.740Z,99474.44
2022-12-24T05:57:03.454Z,99469.25
2022-12-24T05:59:30.775Z,99482.25
2022-12-24T06:01:58.351Z,99490.00
2022-12-24T06:04:28.875Z,99494.41
2022-12-24T06:06:57.173Z,99493.06
2022-12-24T06:09:24.509Z,99491.88
2022-12-24T06:11:52.194Z,99505.38
2022-12-24T06:14:19.471Z,99502.16
2022-12-24T06:16:47.159Z,99509.81
2022-12-24T06:19:14.478Z,99495.53
2022-12-24T06:21:42.100Z,99506.66
2022-12-24T06:24:09.570Z,99514.13
2022-12-24T06:26:37.177Z,99520.38
2022-12-24T06:29:04.433Z,99517.06
2022-12-24T06:31:32.028Z,99506.31
2022-12-24T06:33:59.335Z,99515.69
2022-12-24T06:36:27.031Z,99517.34
2022-12-24T06:38:55.416Z,99531.66
2022-12-24T06:41:23.862Z,99534.69
2022-12-24T06:43:53.020Z,99538.94
2022-12-24T06:46:21.410Z,99543.50
2022-12-24T06:48:49.099Z,99544.47
2022-12-24T06:51:19.885Z,99560.91
2022-12-24T06:53:50.826Z,99579.59
2022-12-24T06:56:20.062Z,99563.41
2022-12-24T06:58:48.119Z,99576.97
2022-12-24T07:01:18.084Z,99577.00
2022-12-24T07:03:45.608Z,99575.81
2022-12-24T07:06:26.619Z,99564.69
2022-12-24T07:08:54.196Z,99588.75
2022-12-24T07:11:23.308Z,99582.28
2022-12-24T07:13:50.920Z,99588.78
2022-12-24T07:16:18.753Z,99588.34
2022-12-24T07:18:46.158Z,99596.44
2022-12-24T07:21:13.832Z,99607.34
2022-12-24T07:23:41.154Z,99609.22
2022-12-24T07:26:08.896Z,99606.00
2022-12-24T07:28:36.270Z,99615.19
2022-12-24T07:31:04.237Z,99618.72
2022-12-24T07:33:31.793Z,99619.66
2022-12-24T07:36:03.673Z,99622.78
2022-12-24T07:38:32.235Z,99629.22
2022-12-24T07:40:59.802Z,99635.59
2022-12-24T07:43:28.222Z,99640.72
2022-12-24T07:45:59.164Z,99648.25
2022-12-24T07:48:27.990Z,99647.13
2022-12-24T07:50:56.341Z,99648.53
2022-12-24T07:53:25.652Z,99650.59
2022-12-24T07:55:53.653Z,99646.78
2022-12-24T07:58:21.715Z,99665.47
2022-12-24T08:00:49.311Z,99653.16
2022-12-24T08:03:21.225Z,99654.16
2022-12-24T08:05:49.439Z,99666.53
2022-12-24T08:08:16.943Z,99654.75
2022-12-24T08:10:46.051Z,99671.94
2022-12-24T08:13:14.408Z,99669.59
2022-12-24T08:15:42.592Z,99672.69
2022-12-24T08:18:10.915Z,99679.53
2022-12-24T08:20:42.123Z,99683.13
2022-12-24T08:23:09.940Z,99669.16
2022-12-24T08:25:38.087Z,99670.47
2022-12-24T08:28:06.443Z,99682.88
2022-12-24T08:30:34.676Z,99686.41
2022-12-24T08:33:02.096Z,99689.88
2022-12-24T08:35:29.835Z,99702.06
2022-12-24T08:37:57.291Z,99699.44
2022-12-24T08:40:25.169Z,99690.69
2022-12-24T08:42:52.855Z,99712.09
2022-12-24T08:45:20.995Z,99709.19
2022-12-24T08:47:48.264Z,99714.78
2022-12-24T08:50:15.908Z,99719.59
2022-12-24T08:52:43.251Z,99724.94
2022-12-24T08:55:10.862Z,99724.50
2022-12-24T08:57:38.542Z,99718.38
2022-12-24T09:00:07.259Z,99721.41
2022-12-24T09:02:34.989Z,99739.38
2022-12-24T09:05:02.837Z,99735.06
2022-12-24T09:07:30.382Z,99738.88
2022-12-24T09:09:57.898Z,99740.31
2022-12-24T09:12:25.206Z,99743.69
2022-12-24T09:14:59.599Z,99748.44
2022-12-24T09:17:30.532Z,99747.47
2022-12-24T09:19:58.130Z,99738.00
2022-12-24T09:22:25.568Z,99747.25
2022-12-24T09:24:56.536Z,99743.88
2022-12-24T09:27:23.961Z,99748.91
2022-12-24T09:29:52.020Z,99753.28
2022-12-24T09:32:19.475Z,99759.47
2022-12-24T09:34:47.120Z,99753.44
2022-12-24T09:37:14.414Z,99778.00
2022-12-24T09:39:42.017Z,99778.38
2022-12-24T09:42:28.050Z,99783.59
2022-12-24T09:45:27.372Z,99777.78
2022-12-24T09:48:01.369Z,99773.72
2022-12-24T09:50:42.235Z,99779.84
2022-12-24T09:53:27.222Z,99782.09
2022-12-24T09:55:59.172Z,99777.13
2022-12-24T09:58:40.518Z,99786.03
2022-12-24T10:01:13.344Z,99783.94
2022-12-24T10:03:41.250Z,99779.72
2022-12-24T10:06:08.881Z,99786.72
2022-12-24T10:08:45.369Z,99788.53
2022-12-24T10:11:31.603Z,99799.94
2022-12-24T10:14:17.442Z,99792.88
2022-12-24T10:16:53.213Z,99790.28
2022-12-24T10:19:23.454Z,99795.13
2022-12-24T10:22:20.024Z,99797.13
2022-12-24T10:25:04.748Z,99796.22
2022-12-24T10:27:38.262Z,99794.81
2022-12-24T10:30:20.466Z,99809.84
2022-12-24T10:32:50.385Z,99814.13
2022-12-24T10:35:29.450Z,99808.25
2022-12-24T10:37:58.277Z,99811.91
2022-12-24T10:40:46.191Z,99810.25
2022-12-24T10:43:23.294Z,99812.09
2022-12-24T10:46:03.785Z,99816.19
2022-12-24T10:48:50.113Z,99815.78
2022-12-24T10:51:51.152Z,99817.25
2022-12-24T10:54:27.361Z,99803.16
2022-12-24T10:57:01.017Z,99805.34
2022-12-24T10:59:53.708Z,99813.66
2022-12-24T11:02:53.380Z,99822.25
2022-12-24T11:05:30.818Z,99830.34
2022-12-24T11:08:05.212Z,99823.25
2022-12-24T11:10:37.083Z,99824.09
2022-12-24T11:13:36.368Z,99831.81
2022-12-24T11:16:02.639Z,99838.06
2022-12-24T11:18:32.063Z,99833.53
2022-12-24T11:21:01.114Z,99827.56
2022-12-24T11:23:29.515Z,99820.00
2022-12-24T11:25:58.527Z,99825.19
2022-12-24T11:28:33.698Z,99838.06
2022-12-24T11:31:19.718Z,99837.34
2022-12-24T11:33:49.708Z,99843.06
2022-12-24T11:36:21.817Z,99854.34
2022-12-24T11:38:57.170Z,99846.88
2022-12-24T11:41:26.423Z,99851.13
2022-12-24T11:44:04.022Z,99866.34
2022-12-24T11:46:39.315Z,99874.78
2022-12-24T11:49:24.724Z,99873.38
2022-12-24T11:52:10.638Z,99878.28
2022-12-24T11:55:16.970Z,99885.25
2022-12-24T11:57:54.158Z,99876.03
2022-12-24T12:00:21.498Z,99883.53
2022-12-24T12:02:52.494Z,99882.91
2022-12-24T12:05:25.087Z,99888.72
2022-12-24T12:08:08.192Z,99885.00
2022-12-24T12:10:39.366Z,99885.44
2022-12-24T12:13:16.442Z,99896.03
2022-12-24T12:16:06.855Z,99889.56
2022-12-24T12:18:40.227Z,99896.94
2022-12-24T12:21:18.896Z,99901.03
2022-12-24T12:23:56.495Z,99898.78
2022-12-24T12:26:27.507Z,99905.09
2022-12-24T12:28:59.630Z,99905.00
2022-12-24T12:31:57.215Z,99920.53
2022-12-24T12:34:44.239Z,99910.56
2022-12-24T12:37:34.286Z,99908.66
2022-12-24T12:40:02.159Z,99895.47
2022-12-24T12:42:39.781Z,99909.94
2022-12-24T12:45:26.120Z,99914.22
2022-12-24T12:48:28.632Z,99914.69
2022-12-24T12:51:19.641Z,99917.16
2022-12-24T12:54:07.834Z,99923.22
2022-12-24T12:56:38.316Z,99929.59
2022-12-24T12:59:30.354Z,99941.03
2022-12-24T13:02:16.614Z,99948.59
2022-12-24T13:04:49.694Z,99948.69
2022-12-24T13:07:23.166Z,99952.75
2022-12-24T13:10:10.016Z,99955.75
2022-12-24T13:13:15.464Z,99963.53
2022-12-24T13:15:45.902Z,99965.72
2022-12-24T13:18:32.314Z,99983.81
2022-12-24T13:21:00.054Z,99977.75
2022-12-24T13:23:28.065Z,99973.25
2022-12-24T13:25:57.800Z,99982.53
2022-12-24T13:28:25.390Z,99979.34
2022-12-24T13:31:13.933Z,99974.13
2022-12-24T13:33:41.438Z,99981.59
2022-12-24T13:36:11.491Z,99981.31
2022-12-24T13:38:44.413Z,99986.50
2022-12-24T13:41:38.616Z,99987.72
2022-12-24T13:44:06.953Z,99992.56
2022-12-24T13:47:05.324Z,99991.06
2022-12-24T13:49:36.162Z,100008.22
2022-12-24T13:52:12.503Z,100010.63
2022-12-24T13:54:43.233Z,100011.63
2022-12-24T13:57:35.972Z,99994.47
2022-12-24T14:00:08.840Z,100011.06
2022-12-24T14:02:50.681Z,100010.28
2022-12-24T14:05:25.378Z,100011.81
2022-12-24T14:07:54.786Z,100014.72
2022-12-24T14:10:45.167Z,100018.78
2022-12-24T14:13:40.053Z,100021.16
2022-12-24T14:16:28.645Z,100031.56
2022-12-24T14:19:22.042Z,100030.09
2022-12-24T14:22:02.438Z,100035.94
2022-12-24T14:24:41.788Z,100031.44
2022-12-24T14:27:41.085Z,100043.22
2022-12-24T14:30:22.067Z,100037.19
2022-12-24T14:32:50.955Z,100028.44
2022-12-24T14:35:19.679Z,100034.66
2022-12-24T14:38:08.027Z,100048.31
2022-12-24T14:40:43.532Z,100056.00
2022-12-24T14:43:47.408Z,100065.75
2022-12-24T14:46:23.879Z,100066.19
2022-12-24T14:49:24.876Z,100072.56
2022-12-24T14:52:54.625Z,100081.88
2022-12-24T14:55:51.467Z,100077.75
2022-12-24T14:58:26.887Z,100092.38
2022-12-24T15:00:57.704Z,100085.72
2022-12-24T15:03:28.426Z,100089.06
2022-12-24T15:05:59.616Z,100105.03
2022-12-24T15:08:38.249Z,100097.75
2022-12-24T15:11:14.782Z,100083.84
2022-12-24T15:13:45.505Z,100084.53
2022-12-24T15:16:19.016Z,100089.84
2022-12-24T15:18:50.081Z,100084.00
2022-12-24T15:21:37.734Z,100081.56
2022-12-24T15:24:05.553Z,100091.28
2022-12-24T15:26:36.701Z,100073.63
2022-12-24T15:29:21.086Z,100093.31
2022-12-24T15:31:57.215Z,100096.66
2022-12-24T15:34:46.448Z,100097.75
2022-12-24T15:37:27.211Z,100100.91
2022-12-24T15:40:11.109Z,100111.38
2022-12-24T15:42:42.653Z,100115.97
2022-12-24T15:45:27.518Z,100115.22
2022-12-24T15:48:00.584Z,100102.00
2022-12-24T15:50:31.836Z,100127.59
2022-12-24T15:53:26.887Z,100130.94
2022-12-24T15:56:02.743Z,100127.88
2022-12-24T15:58:33.556Z,100126.59
2022-12-24T16:01:26.614Z,100128.72
2022-12-24T16:03:54.415Z,100131.94
2022-12-24T16:06:23.248Z,100136.03
2022-12-24T16:08:55.197Z,100137.38
2022-12-24T16:11:36.584Z,100142.31
2022-12-24T16:14:04.131Z,100142.81
2022-12-24T16:16:43.109Z,100137.31
2022-12-24T16:19:40.656Z,100141.38
2022-12-24T16:22:26.640Z,100140.13
2022-12-24T16:24:55.763Z,100139.44
2022-12-24T16:27:23.652Z,100133.53
2022-12-24T16:29:51.260Z,100139.25
2022-12-24T16:32:33.209Z,100140.28
2022-12-24T16:35:02.041Z,100149.69
2022-12-24T16:37:29.301Z,100138.88
2022-12-24T16:39:57.305Z,100141.16
2022-12-24T16:42:43.209Z,100146.84
2022-12-24T16:45:11.157Z,100151.81
2022-12-24T16:47:42.889Z,100145.13
2022-12-24T16:50:15.944Z,100154.16
2022-12-24T16:52:43.592Z,100167.28
2022-12-24T16:55:14.463Z,100157.63
2022-12-24T16:57:43.469Z,100172.84
2022-12-24T17:00:20.686Z,100165.66
2022-12-24T17:02:49.498Z,100143.16
2022-12-24T17:05:18.962Z,100159.31
2022-12-24T17:07:46.173Z,100152.84
2022-12-24T17:10:14.790Z,100152.69
2022-12-24T17:12:42.970Z,100153.44
2022-12-24T17:15:11.298Z,100171.41
2022-12-24T17:17:38.610Z,100158.53
2022-12-24T17:20:07.711Z,100175.72
2022-12-24T17:22:36.221Z,100187.66
2022-12-24T17:25:04.736Z,100182.75
2022-12-24T17:27:32.287Z,100189.16
2022-12-24T17:29:59.932Z,100180.44
2022-12-24T17:32:29.973Z,100186.41
2022-12-24T17:35:00.031Z,100188.19
2022-12-24T17:37:27.501Z,100202.06
2022-12-24T17:39:55.850Z,100186.66
2022-12-24T17:42:23.141Z,100195.50
2022-12-24T17:44:50.731Z,100211.06
2022-12-24T17:47:17.968Z,100207.69
2022-12-24T17:49:45.498Z,100198.00
2022-12-24T17:52:12.800Z,100185.19
2022-12-24T17:54:40.364Z,100183.09
2022-12-24T17:57:07.628Z,100195.97
2022-12-24T17:59:35.247Z,100185.78
2022-12-24T18:02:02.554Z,100192.00
2022-12-24T18:04:30.313Z,100195.38
2022-12-24T18:07:02.103Z,100198.78
2022-12-24T18:09:30.899Z,100199.63
2022-12-24T18:11:58.194Z,100208.72
2022-12-24T18:14:25.704Z,100214.31
2022-12-24T18:16:53.131Z,100211.09
2022-12-24T18:19:20.756Z,100203.81
2022-12-24T18:21:48.102Z,100211.84
2022-12-24T18:24:15.796Z,100213.69
2022-12-24T18:26:44.555Z,100208.25
2022-12-24T18:29:12.728Z,100212.41
2022-12-24T18:31:40.250Z,100216.34
2022-12-24T18:34:11.354Z,100223.00
2022-12-24T18:36:38.881Z,100212.78
2022-12-24T18:39:06.428Z,100228.31
2022-12-24T18:41:33.797Z,100220.38
2022-12-24T18:44:01.546Z,100228.16
2022-12-24T18:46:31.357Z,100226.63
2022-12-24T18:49:01.323Z,100222.41
2022-12-24T18:51:35.403Z,100234.22
2022-12-24T18:54:04.534Z,100229.56
2022-12-24T18:56:31.905Z,100227.06
2022-12-24T18:59:01.946Z,100228.16
2022-12-24T19:01:32.744Z,100228.78
2022-12-24T19:04:01.715Z,100247.28
2022-12-24T19:06:29.154Z,100242.00
2022-12-24T19:08:59.269Z,100249.78
2022-12-24T19:11:33.021Z,100254.41
2022-12-24T19:14:02.548Z,100262.81
2022-12-24T19:16:31.353Z,100259.72
2022-12-24T19:18:59.022Z,100264.56
2022-12-24T19:21:26.879Z,100271.50
2022-12-24T19:23:54.530Z,100266.72
2022-12-24T19:26:22.377Z,100245.81
2022-12-24T19:28:50.753Z,100258.28
2022-12-24T19:31:24.306Z,100263.91
2022-12-24T19:33:55.195Z,100260.41
2022-12-24T19:36:25.716Z,100264.13
2022-12-24T19:38:53.766Z,100262.78
2022-12-24T19:41:29.878Z,100267.72
2022-12-24T19:44:00.244Z,100265.25
2022-12-24T19:46:33.667Z,100275.13
2022-12-24T19:49:05.337Z,100276.84
2022-12-24T19:51:33.598Z,100273.91
2022-12-24T19:54:01.816Z,100276.84
2022-12-24T19:56:31.197Z,100291.91
2022-12-24T19:59:00.058Z,100291.50
2022-12-24T20:01:30.050Z,100304.50
2022-12-24T20:03:57.930Z,100303.91
2022-12-24T20:06:28.890Z,100308.28
2022-12-24T20:09:06.163Z,100313.47
2022-12-24T20:11:34.278Z,100317.94
2022-12-24T20:14:03.483Z,100318.66
2022-12-24T20:16:31.359Z,100326.28
2022-12-24T20:19:04.523Z,100327.44
2022-12-24T20:21:32.620Z,100339.16
2022-12-24T20:24:00.454Z,100334.59
2022-12-24T20:26:28.794Z,100342.09
2022-12-24T20:28:56.458Z,100340.06
2022-12-24T20:31:26.485Z,100345.13
2022-12-24T20:33:54.524Z,100354.63
2022-12-24T20:36:23.417Z,100338.31
2022-12-24T20:38:51.328Z,100344.91
2022-12-24T20:41:21.163Z,100349.56
2022-12-24T20:43:49.825Z,100345.34
2022-12-24T20:46:19.254Z,100341.34
2022-12-24T20:48:47.293Z,100345.69
2022-12-24T20:51:23.323Z,100322.91
2022-12-24T20:53:58.497Z,100324.72
2022-12-24T20:56:26.710Z,100330.22
2022-12-24T20:58:54.675Z,100317.56
2022-12-24T21:01:24.979Z,100336.94
2022-12-24T21:03:54.243Z,100334.56
2022-12-24T21:06:22.591Z,100339.66
2022-12-24T21:08:51.462Z,100345.13
2022-12-24T21:11:37.987Z,100349.16
2022-12-24T21:14:06.009Z,100354.44
2022-12-24T21:16:35.304Z,100353.06
2022-12-24T21:19:04.042Z,100358.09
2022-12-24T21:21:31.807Z,100366.47
2022-12-24T21:23:59.641Z,100362.28
2022-12-24T21:26:27.039Z,100359.56
2022-12-24T21:28:55.113Z,100363.38
2022-12-24T21:31:22.574Z,100361.66
2022-12-24T21:33:50.197Z,100370.91
2022-12-24T21:36:17.898Z,100363.97
2022-12-24T21:38:45.481Z,100368.13
2022-12-24T21:41:19.128Z,100361.78
2022-12-24T21:43:46.859Z,100359.13
2022-12-24T21:46:23.181Z,100375.78
2022-12-24T21:49:11.034Z,100353.28
2022-12-24T21:51:39.065Z,100354.97
2022-12-24T21:54:26.126Z,100353.22
2022-12-24T21:57:14.829Z,100341.84
2022-12-24T21:59:42.697Z,100342.31
2022-12-24T22:02:12.314Z,100341.34
2022-12-24T22:04:40.282Z,100347.84
2022-12-24T22:07:26.130Z,100340.03
2022-12-24T22:10:12.179Z,100346.97
2022-12-24T22:12:39.458Z,100333.69
2022-12-24T22:15:07.781Z,100340.72
2022-12-24T22:17:35.050Z,100340.63
2022-12-24T22:20:02.691Z,100335.47
2022-12-24T22:22:29.984Z,100325.94
2022-12-24T22:24:57.526Z,100334.91
2022-12-24T22:27:24.870Z,100335.25
2022-12-24T22:29:53.660Z,100341.13
2022-12-24T22:32:21.021Z,100350.38
2022-12-24T22:34:49.591Z,100343.78
2022-12-24T22:37:17.210Z,100346.97
2022-12-24T22:39:44.796Z,100348.63
2022-12-24T22:42:12.096Z,100343.38
2022-12-24T22:44:39.699Z,100344.72
2022-12-24T22:47:07.057Z,100329.63
2022-12-24T22:49:36.171Z,100333.78
2022-12-24T22:52:03.569Z,100342.75
2022-12-24T22:54:31.329Z,100337.88
2022-12-24T22:56:58.933Z,100336.56
2022-12-24T22:59:26.667Z,100342.66
2022-12-24T23:01:54.105Z,100330.94
2022-12-24T23:04:22.153Z,100340.44
2022-12-24T23:06:49.659Z,100345.97
2022-12-24T23:09:18.045Z,100342.94
2022-12-24T23:11:45.849Z,100338.00
2022-12-24T23:14:37.255Z,100346.16
2022-12-24T23:17:05.333Z,100348.88
2022-12-24T23:19:33.899Z,100356.53
2022-12-24T23:22:03.163Z,100352.84
2022-12-24T23:24:31.635Z,100342.75
2022-12-24T23:27:03.227Z,100352.91
2022-12-24T23:29:32.170Z,100355.44
2022-12-24T23:32:00.038Z,100353.56
2022-12-24T23:34:27.736Z,100368.41
2022-12-24T23:36:55.111Z,100369.25
2022-12-24T23:39:22.869Z,100371.44
2022-12-24T23:41:50.137Z,100383.38
2022-12-24T23:44:17.692Z,100385.75
2022-12-24T23:46:45.109Z,100395.31
2022-12-24T23:49:15.288Z,100390.63
2022-12-24T23:51:42.742Z,100400.72
2022-12-24T23:54:10.330Z,100390.16
2022-12-24T23:56:37.863Z,100387.19
2022-12-24T23:59:05.501Z,100379.28
